createdAt,value
2023-09-06T00:00:56.062Z,101946.72
2023-09-06T00:03:41.585Z,101947.71
2023-09-06T00:06:28.149Z,101951.73
2023-09-06T00:09:14.051Z,101952.79
2023-09-06T00:11:59.225Z,101953.98
2023-09-06T00:14:46.572Z,101951.41
2023-09-06T00:17:32.110Z,101954.60
2023-09-06T00:20:21.564Z,101956.48
2023-09-06T00:23:14.100Z,101956.73
2023-09-06T00:26:00.179Z,101957.52
2023-09-06T00:28:46.447Z,101957.25
2023-09-06T00:31:32.154Z,101962.67
2023-09-06T00:34:17.862Z,101960.92
2023-09-06T00:37:03.737Z,101961.73
2023-09-06T00:39:49.521Z,101964.45
2023-09-06T00:42:35.112Z,101967.70
2023-09-06T00:45:26.829Z,101969.70
2023-09-06T00:48:14.612Z,101969.59
2023-09-06T00:51:01.812Z,101967.48
2023-09-06T00:53:48.895Z,101966.65
2023-09-06T00:56:34.515Z,101969.20
2023-09-06T00:59:22.737Z,101965.29
2023-09-06T01:02:09.635Z,101967.66
2023-09-06T01:04:55.541Z,101970.96
2023-09-06T01:07:54.397Z,101970.48
2023-09-06T01:10:39.983Z,101968.71
2023-09-06T01:13:25.461Z,101970.02
2023-09-06T01:16:12.523Z,101966.17
2023-09-06T01:18:58.708Z,101961.58
2023-09-06T01:22:23.473Z,101961.45
2023-09-06T01:25:10.549Z,101961.36
2023-09-06T01:27:56.769Z,101964.46
2023-09-06T01:30:42.719Z,101973.31
2023-09-06T01:33:29.703Z,101967.23
2023-09-06T01:36:15.432Z,101969.46
2023-09-06T01:39:00.913Z,101975.02
2023-09-06T01:41:46.186Z,101975.78
2023-09-06T01:44:32.661Z,101981.92
2023-09-06T01:47:19.300Z,101978.17
2023-09-06T01:50:05.455Z,101973.75
2023-09-06T01:52:52.725Z,101971.65
2023-09-06T01:55:38.520Z,101975.69
2023-09-06T01:58:24.609Z,101973.06
2023-09-06T02:01:10.327Z,101971.31
2023-09-06T02:03:56.365Z,101971.02
2023-09-06T02:06:42.431Z,101971.06
2023-09-06T02:09:27.890Z,101973.45
2023-09-06T02:12:14.095Z,101970.29
2023-09-06T02:14:59.365Z,101974.60
2023-09-06T02:17:45.251Z,101975.90
2023-09-06T02:20:32.059Z,101977.55
2023-09-06T02:23:17.615Z,101975.25
2023-09-06T02:26:05.664Z,101976.89
2023-09-06T02:28:51.376Z,101978.57
2023-09-06T02:31:38.810Z,101984.19
2023-09-06T02:34:25.685Z,101984.58
2023-09-06T02:37:11.289Z,101986.75
2023-09-06T02:39:56.672Z,101989.30
2023-09-06T02:42:44.739Z,101988.80
2023-09-06T02:45:37.328Z,101987.23
2023-09-06T02:48:23.145Z,101987.68
2023-09-06T02:51:10.805Z,101990.43
2023-09-06T02:53:57.674Z,101988.69
2023-09-06T02:56:46.156Z,101986.42
2023-09-06T02:59:31.996Z,101988.81
2023-09-06T03:02:17.836Z,101992.10
2023-09-06T03:05:05.191Z,101997.17
2023-09-06T03:07:54.446Z,101996.02
2023-09-06T03:10:41.584Z,101997.71
2023-09-06T03:13:27.213Z,102001.34
2023-09-06T03:16:14.663Z,102003.58
2023-09-06T03:19:02.050Z,102004.88
2023-09-06T03:21:50.638Z,102010.63
2023-09-06T03:24:41.021Z,102012.14
2023-09-06T03:27:29.011Z,102017.79
2023-09-06T03:30:15.697Z,102022.33
2023-09-06T03:33:05.771Z,102025.95
2023-09-06T03:35:51.778Z,102026.52
2023-09-06T03:38:37.669Z,102031.34
2023-09-06T03:41:23.936Z,102035.65
2023-09-06T03:44:10.650Z,102040.30
2023-09-06T03:46:57.715Z,102041.92
2023-09-06T03:49:44.172Z,102046.45
2023-09-06T03:52:29.903Z,102049.48
2023-09-06T03:55:17.005Z,102049.15
2023-09-06T03:58:07.691Z,102053.09
2023-09-06T04:00:54.118Z,102056.13
2023-09-06T04:03:43.222Z,102055.41
2023-09-06T04:06:30.180Z,102060.61
2023-09-06T04:09:19.215Z,102063.25
2023-09-06T04:12:07.941Z,102065.89
2023-09-06T04:14:54.140Z,102068.31
2023-09-06T04:17:41.084Z,102069.09
2023-09-06T04:20:28.159Z,102075.98
2023-09-06T04:23:13.966Z,102077.15
2023-09-06T04:26:02.245Z,102080.65
2023-09-06T04:28:49.262Z,102088.38
2023-09-06T04:32:00.844Z,102089.32
2023-09-06T04:35:33.630Z,102094.30
2023-09-06T04:38:32.000Z,102100.95
2023-09-06T04:41:19.207Z,102102.36
2023-09-06T04:44:14.193Z,102098.73
2023-09-06T04:47:02.118Z,102095.10
2023-09-06T04:49:48.817Z,102094.87
2023-09-06T04:52:43.569Z,102095.42
2023-09-06T04:55:29.190Z,102098.45
2023-09-06T04:58:15.215Z,102099.55
2023-09-06T05:01:07.312Z,102098.45
2023-09-06T05:03:53.482Z,102098.23
2023-09-06T05:06:45.590Z,102098.10
2023-09-06T05:09:33.509Z,102099.59
2023-09-06T05:12:22.483Z,102101.00
2023-09-06T05:15:09.432Z,102104.90
2023-09-06T05:17:55.305Z,102111.34
2023-09-06T05:20:48.701Z,102111.23
2023-09-06T05:23:37.274Z,102111.39
2023-09-06T05:27:04.356Z,102118.31
2023-09-06T05:29:50.573Z,102114.79
2023-09-06T05:32:36.494Z,102117.84
2023-09-06T05:35:23.149Z,102121.98
2023-09-06T05:38:10.037Z,102122.73
2023-09-06T05:40:58.289Z,102126.20
2023-09-06T05:43:49.179Z,102122.52
2023-09-06T05:46:35.638Z,102120.16
2023-09-06T05:49:23.299Z,102128.96
2023-09-06T05:52:09.043Z,102127.61
2023-09-06T05:54:55.969Z,102128.53
2023-09-06T05:57:45.404Z,102130.91
2023-09-06T06:00:33.040Z,102133.95
2023-09-06T06:03:21.684Z,102132.85
2023-09-06T06:06:11.181Z,102135.02
2023-09-06T06:08:56.441Z,102138.39
2023-09-06T06:11:42.253Z,102140.54
2023-09-06T06:14:28.841Z,102135.01
2023-09-06T06:17:14.405Z,102138.13
2023-09-06T06:19:59.940Z,102140.52
2023-09-06T06:22:45.673Z,102136.86
2023-09-06T06:25:31.593Z,102143.42
2023-09-06T06:28:17.577Z,102148.17
2023-09-06T06:31:03.693Z,102152.45
2023-09-06T06:33:49.264Z,102156.71
2023-09-06T06:36:35.308Z,102156.99
2023-09-06T06:39:20.569Z,102160.89
2023-09-06T06:42:07.490Z,102162.21
2023-09-06T06:44:53.886Z,102164.29
2023-09-06T06:47:39.726Z,102162.55
2023-09-06T06:50:26.280Z,102161.23
2023-09-06T06:53:16.453Z,102157.90
2023-09-06T06:56:03.895Z,102164.32
2023-09-06T06:58:51.653Z,102164.05
2023-09-06T07:01:37.652Z,102166.23
2023-09-06T07:04:23.194Z,102163.25
2023-09-06T07:07:08.770Z,102164.62
2023-09-06T07:09:54.534Z,102162.00
2023-09-06T07:12:43.382Z,102165.85
2023-09-06T07:15:30.171Z,102166.81
2023-09-06T07:18:19.987Z,102162.92
2023-09-06T07:21:07.657Z,102157.61
2023-09-06T07:23:53.253Z,102154.41
2023-09-06T07:26:42.862Z,102152.09
2023-09-06T07:29:29.198Z,102150.29
2023-09-06T07:32:17.167Z,102152.21
2023-09-06T07:35:03.472Z,102151.21
2023-09-06T07:37:50.112Z,102148.15
2023-09-06T07:40:35.921Z,102144.36
2023-09-06T07:43:21.470Z,102140.96
2023-09-06T07:46:09.315Z,102141.11
2023-09-06T07:48:55.413Z,102142.70
2023-09-06T07:51:41.441Z,102143.66
2023-09-06T07:54:27.164Z,102142.59
2023-09-06T07:57:13.187Z,102136.84
2023-09-06T08:00:01.270Z,102142.16
2023-09-06T08:02:48.939Z,102143.43
2023-09-06T08:05:39.190Z,102143.81
2023-09-06T08:08:25.285Z,102141.90
2023-09-06T08:11:18.354Z,102137.17
2023-09-06T08:14:06.580Z,102144.96
2023-09-06T08:16:52.284Z,102141.09
2023-09-06T08:19:38.399Z,102142.25
2023-09-06T08:22:35.601Z,102140.84
2023-09-06T08:25:28.898Z,102146.92
2023-09-06T08:28:16.956Z,102145.16
2023-09-06T08:31:04.741Z,102142.50
2023-09-06T08:33:50.180Z,102147.27
2023-09-06T08:36:35.777Z,102144.23
2023-09-06T08:39:21.421Z,102145.52
2023-09-06T08:42:07.912Z,102145.29
2023-09-06T08:44:53.323Z,102147.81
2023-09-06T08:47:40.585Z,102143.02
2023-09-06T08:50:26.784Z,102140.95
2023-09-06T08:53:18.670Z,102142.58
2023-09-06T08:56:06.086Z,102138.79
2023-09-06T08:58:53.178Z,102144.27
2023-09-06T09:01:38.919Z,102142.74
2023-09-06T09:04:25.629Z,102140.92
2023-09-06T09:07:13.066Z,102147.59
2023-09-06T09:10:08.029Z,102149.05
2023-09-06T09:12:56.757Z,102149.13
2023-09-06T09:15:42.750Z,102145.23
2023-09-06T09:18:31.757Z,102146.20
2023-09-06T09:21:18.060Z,102147.59
2023-09-06T09:24:05.534Z,102145.91
2023-09-06T09:26:51.549Z,102146.21
2023-09-06T09:29:37.391Z,102141.40
2023-09-06T09:32:23.396Z,102141.34
2023-09-06T09:35:13.097Z,102145.40
2023-09-06T09:38:03.464Z,102147.64
2023-09-06T09:41:09.308Z,102151.23
2023-09-06T09:44:13.351Z,102148.92
2023-09-06T09:47:25.013Z,102153.01
2023-09-06T09:50:17.873Z,102153.41
2023-09-06T09:53:19.937Z,102155.19
2023-09-06T09:56:15.141Z,102148.27
2023-09-06T09:59:04.485Z,102147.42
2023-09-06T10:01:54.310Z,102149.15
2023-09-06T10:04:42.873Z,102149.49
2023-09-06T10:07:46.846Z,102152.86
2023-09-06T10:10:37.930Z,102158.98
2023-09-06T10:13:27.548Z,102158.98
2023-09-06T10:16:14.366Z,102159.91
2023-09-06T10:19:00.156Z,102161.71
2023-09-06T10:21:47.630Z,102162.69
2023-09-06T10:24:35.595Z,102167.69
2023-09-06T10:27:32.858Z,102166.80
2023-09-06T10:30:31.799Z,102164.24
2023-09-06T10:36:59.999Z,102172.36
2023-09-06T10:39:54.578Z,102171.15
2023-09-06T10:42:40.386Z,102169.09
2023-09-06T10:45:27.163Z,102167.37
2023-09-06T10:48:12.948Z,102168.38
2023-09-06T10:51:10.293Z,102168.72
2023-09-06T10:53:56.813Z,102166.48
2023-09-06T10:56:51.335Z,102165.77
2023-09-06T10:59:55.873Z,102163.09
2023-09-06T11:02:42.911Z,102163.22
2023-09-06T11:05:52.246Z,102165.44
2023-09-06T11:08:39.599Z,102162.55
2023-09-06T11:11:26.914Z,102165.21
2023-09-06T11:14:12.894Z,102169.98
2023-09-06T11:16:59.829Z,102164.10
2023-09-06T11:19:45.670Z,102161.30
2023-09-06T11:22:34.450Z,102157.42
2023-09-06T11:25:35.918Z,102150.41
2023-09-06T11:28:22.163Z,102150.14
2023-09-06T11:31:24.492Z,102149.79
2023-09-06T11:34:12.979Z,102147.63
2023-09-06T11:37:04.181Z,102145.48
2023-09-06T11:39:50.457Z,102146.21
2023-09-06T11:42:36.098Z,102146.33
2023-09-06T11:45:23.282Z,102144.88
2023-09-06T11:48:11.603Z,102143.06
2023-09-06T11:51:20.422Z,102137.30
2023-09-06T11:54:10.023Z,102129.98
2023-09-06T11:56:57.586Z,102126.27
2023-09-06T11:59:44.257Z,102119.98
2023-09-06T12:02:31.826Z,102117.63
2023-09-06T12:05:34.994Z,102115.83
2023-09-06T12:08:30.703Z,102115.30
2023-09-06T12:11:24.579Z,102114.84
2023-09-06T12:14:27.764Z,102111.98
2023-09-06T12:17:21.633Z,102115.36
2023-09-06T12:20:11.019Z,102113.44
2023-09-06T12:22:58.592Z,102106.78
2023-09-06T12:25:44.385Z,102113.83
2023-09-06T12:28:32.375Z,102108.19
2023-09-06T12:31:18.673Z,102105.89
2023-09-06T12:34:04.272Z,102102.77
2023-09-06T12:36:49.462Z,102103.22
2023-09-06T12:39:34.996Z,102097.23
2023-09-06T12:42:20.682Z,102092.48
2023-09-06T12:45:08.333Z,102093.58
2023-09-06T12:48:04.034Z,102090.12
2023-09-06T12:50:51.770Z,102088.13
2023-09-06T12:53:43.902Z,102082.38
2023-09-06T12:56:29.608Z,102077.99
2023-09-06T12:59:15.085Z,102076.60
2023-09-06T13:02:00.519Z,102070.95
2023-09-06T13:04:47.120Z,102062.45
2023-09-06T13:07:33.053Z,102058.88
2023-09-06T13:10:18.327Z,102056.98
2023-09-06T13:13:04.038Z,102059.65
2023-09-06T13:15:49.724Z,102053.11
2023-09-06T13:21:21.609Z,102043.20
2023-09-06T13:24:07.481Z,102041.45
2023-09-06T13:26:53.971Z,102042.78
2023-09-06T13:29:39.725Z,102039.09
2023-09-06T13:32:26.037Z,102032.17
2023-09-06T13:35:12.149Z,102029.48
2023-09-06T13:37:58.620Z,102030.80
2023-09-06T13:40:44.329Z,102024.96
2023-09-06T13:43:30.245Z,102017.66
2023-09-06T13:46:15.962Z,102016.74
2023-09-06T13:49:01.748Z,102014.36
2023-09-06T13:51:47.284Z,102012.61
2023-09-06T13:54:32.651Z,102015.80
2023-09-06T13:57:17.973Z,102014.31
2023-09-06T14:00:06.046Z,102014.23
2023-09-06T14:02:51.610Z,102006.87
2023-09-06T14:05:37.642Z,101998.14
2023-09-06T14:08:23.447Z,101999.52
2023-09-06T14:11:09.662Z,101995.05
2023-09-06T14:13:55.657Z,101998.90
2023-09-06T14:16:41.160Z,101998.53
2023-09-06T14:19:28.353Z,101993.45
2023-09-06T14:22:13.999Z,101992.13
2023-09-06T14:24:59.856Z,101990.55
2023-09-06T14:27:45.490Z,101991.15
2023-09-06T14:30:33.371Z,101989.35
2023-09-06T14:33:19.169Z,101991.23
2023-09-06T14:36:06.262Z,101990.30
2023-09-06T14:38:54.830Z,101991.34
2023-09-06T14:41:40.724Z,101991.75
2023-09-06T14:44:26.234Z,101988.26
2023-09-06T14:47:12.187Z,101988.10
2023-09-06T14:49:58.224Z,101991.33
2023-09-06T14:52:43.884Z,101996.10
2023-09-06T14:55:29.676Z,101997.48
2023-09-06T14:58:15.664Z,101996.45
2023-09-06T15:01:01.625Z,101995.42
2023-09-06T15:03:48.012Z,101996.70
2023-09-06T15:06:48.057Z,101997.77
2023-09-06T15:09:41.320Z,101996.92
2023-09-06T15:12:27.013Z,101990.85
2023-09-06T15:15:16.288Z,101989.91
2023-09-06T15:18:03.290Z,101991.73
2023-09-06T15:20:48.949Z,101991.41
2023-09-06T15:23:34.535Z,101993.34
2023-09-06T15:26:21.842Z,101992.75
2023-09-06T15:29:08.734Z,101999.55
2023-09-06T15:31:54.496Z,101999.86
2023-09-06T15:34:40.265Z,101997.48
2023-09-06T15:37:27.767Z,101994.98
2023-09-06T15:43:47.823Z,101995.66
2023-09-06T15:46:33.609Z,101993.17
2023-09-06T15:49:19.345Z,101995.70
2023-09-06T15:52:05.766Z,101997.30
2023-09-06T15:55:07.131Z,101995.43
2023-09-06T15:58:01.945Z,101994.13
2023-09-06T16:00:52.696Z,101995.63
2023-09-06T16:03:43.815Z,102001.95
2023-09-06T16:06:31.594Z,102004.19
2023-09-06T16:09:17.163Z,102007.23
2023-09-06T16:12:10.562Z,102007.94
2023-09-06T16:14:56.301Z,102010.30
2023-09-06T16:17:45.683Z,102014.70
2023-09-06T16:24:17.542Z,102026.18
2023-09-06T16:27:04.328Z,102027.84
2023-09-06T16:30:31.509Z,102031.17
2023-09-06T16:34:05.618Z,102032.36
2023-09-06T16:37:52.642Z,102034.74
2023-09-06T16:44:36.090Z,102045.56
2023-09-06T16:47:23.778Z,102049.30
2023-09-06T16:50:09.714Z,102053.98
2023-09-06T16:56:49.660Z,102064.52
2023-09-06T16:59:34.958Z,102071.05
2023-09-06T17:10:08.201Z,102083.49
2023-09-06T17:12:53.968Z,102083.84
2023-09-06T17:15:40.027Z,102089.02
2023-09-06T17:18:29.265Z,102090.02
2023-09-06T17:21:15.496Z,102096.53
2023-09-06T17:24:04.631Z,102103.52
2023-09-06T17:26:50.562Z,102107.45
2023-09-06T17:29:43.950Z,102107.34
2023-09-06T17:32:30.687Z,102107.98
2023-09-06T17:35:17.444Z,102113.45
2023-09-06T17:38:06.865Z,102114.39
2023-09-06T17:40:53.892Z,102114.39
2023-09-06T17:43:40.403Z,102114.40
2023-09-06T17:46:26.708Z,102121.59
2023-09-06T17:49:13.654Z,102126.02
2023-09-06T17:56:13.115Z,102125.73
2023-09-06T18:09:38.396Z,102129.29
2023-09-06T18:16:12.445Z,102132.45
2023-09-06T18:18:58.217Z,102130.94
2023-09-06T18:21:43.576Z,102129.27
2023-09-06T18:24:30.574Z,102130.21
2023-09-06T18:27:16.554Z,102130.38
2023-09-06T18:30:02.046Z,102132.92
2023-09-06T18:32:49.364Z,102131.56
2023-09-06T18:35:35.824Z,102129.16
2023-09-06T18:38:22.541Z,102129.97
2023-09-06T18:41:09.342Z,102127.82
2023-09-06T18:43:55.550Z,102122.52
2023-09-06T18:46:41.133Z,102126.27
2023-09-06T18:49:27.525Z,102127.34
2023-09-06T18:52:36.132Z,102123.46
2023-09-06T18:55:21.654Z,102125.98
2023-09-06T18:58:08.159Z,102127.98
2023-09-06T19:00:55.096Z,102131.52
2023-09-06T19:03:41.730Z,102131.95
2023-09-06T19:06:30.261Z,102132.45
2023-09-06T19:09:16.294Z,102134.91
2023-09-06T19:12:02.072Z,102133.82
2023-09-06T19:14:57.267Z,102132.93
2023-09-06T19:17:47.473Z,102137.61
2023-09-06T19:20:51.016Z,102137.54
2023-09-06T19:23:36.883Z,102137.96
2023-09-06T19:26:22.778Z,102139.66
2023-09-06T19:29:17.660Z,102144.07
2023-09-06T19:32:11.217Z,102144.64
2023-09-06T19:34:57.971Z,102144.17
2023-09-06T19:37:46.529Z,102136.66
2023-09-06T19:44:59.827Z,102137.48
2023-09-06T19:47:56.335Z,102134.96
2023-09-06T19:50:42.246Z,102133.33
2023-09-06T19:53:27.841Z,102131.02
2023-09-06T19:56:17.512Z,102132.27
2023-09-06T19:59:06.936Z,102128.04
2023-09-06T20:01:52.639Z,102128.17
2023-09-06T20:15:29.660Z,102132.49
2023-09-06T20:18:15.386Z,102134.45
2023-09-06T20:21:10.038Z,102134.59
2023-09-06T20:24:21.292Z,102134.42
2023-09-06T20:27:32.164Z,102135.52
2023-09-06T20:30:45.943Z,102134.86
2023-09-06T20:33:31.876Z,102135.70
2023-09-06T20:36:19.017Z,102133.65
2023-09-06T20:39:04.850Z,102134.98
2023-09-06T20:41:50.543Z,102134.30
2023-09-06T20:44:36.124Z,102135.73
2023-09-06T20:47:21.602Z,102134.51
2023-09-06T20:50:08.047Z,102131.56
2023-09-06T20:52:54.565Z,102129.70
2023-09-06T20:55:40.228Z,102129.10
2023-09-06T20:58:26.281Z,102127.94
2023-09-06T21:01:18.985Z,102131.08
2023-09-06T21:04:04.723Z,102129.06
2023-09-06T21:06:50.573Z,102127.83
2023-09-06T21:09:36.284Z,102131.23
2023-09-06T21:12:22.413Z,102128.49
2023-09-06T21:15:08.707Z,102125.83
2023-09-06T21:17:54.555Z,102122.77
2023-09-06T21:20:41.011Z,102116.95
2023-09-06T21:23:27.564Z,102122.40
2023-09-06T21:26:12.964Z,102121.47
2023-09-06T21:28:59.424Z,102118.33
2023-09-06T21:31:45.090Z,102121.71
2023-09-06T21:34:32.274Z,102124.20
2023-09-06T21:37:18.288Z,102123.65
2023-09-06T21:40:04.533Z,102127.34
2023-09-06T21:42:59.931Z,102126.00
2023-09-06T21:45:52.643Z,102124.83
2023-09-06T21:48:40.656Z,102127.90
2023-09-06T21:51:26.258Z,102128.35
2023-09-06T21:54:11.868Z,102131.26
2023-09-06T21:56:57.394Z,102126.48
2023-09-06T21:59:43.033Z,102128.13
2023-09-06T22:02:29.414Z,102124.55
2023-09-06T22:05:33.805Z,102119.27
2023-09-06T22:08:38.311Z,102121.16
2023-09-06T22:11:44.089Z,102117.16
2023-09-06T22:14:29.748Z,102116.41
2023-09-06T22:17:15.730Z,102113.65
2023-09-06T22:20:01.961Z,102111.27
2023-09-06T22:22:48.025Z,102109.70
2023-09-06T22:25:33.369Z,102113.42
2023-09-06T22:28:20.968Z,102110.84
2023-09-06T22:31:06.526Z,102111.67
2023-09-06T22:33:52.612Z,102111.69
2023-09-06T22:36:38.321Z,102110.89
2023-09-06T22:39:23.901Z,102112.80
2023-09-06T22:42:11.550Z,102109.38
2023-09-06T22:44:57.031Z,102109.59
2023-09-06T22:47:42.615Z,102107.83
2023-09-06T22:50:28.253Z,102103.31
2023-09-06T22:53:14.261Z,102102.54
2023-09-06T22:55:59.714Z,102098.20
2023-09-06T22:58:45.445Z,102096.70
2023-09-06T23:01:30.874Z,102098.20
2023-09-06T23:04:16.946Z,102094.63
2023-09-06T23:07:02.826Z,102085.93
2023-09-06T23:09:49.435Z,102084.21
2023-09-06T23:12:35.190Z,102084.32
2023-09-06T23:15:23.810Z,102081.53
2023-09-06T23:18:11.694Z,102080.67
2023-09-06T23:21:05.585Z,102077.81
2023-09-06T23:23:53.646Z,102079.33
2023-09-06T23:26:39.675Z,102078.69
2023-09-06T23:29:33.069Z,102079.88
2023-09-06T23:32:20.626Z,102077.08
2023-09-06T23:35:07.427Z,102074.62
2023-09-06T23:37:57.051Z,102078.45
2023-09-06T23:40:45.904Z,102079.86
2023-09-06T23:43:34.331Z,102073.80
2023-09-06T23:46:21.681Z,102075.66
2023-09-06T23:49:08.814Z,102072.28
2023-09-06T23:51:54.665Z,102069.35
2023-09-06T23:54:47.017Z,102065.70
2023-09-06T23:57:33.670Z,102063.09
